Terminal Aerodrome Forecast
Issued by NWS Wakefield, VA

Home | Current Version | Previous Version | Text Only | Print | Product List | Glossary On
Versions: 1 2 3 4 5 6 7 8 9 10 11 12 13 14
899
FTUS41 KAKQ 072346
TAFORF
TAF
KORF 072346Z 0800/0824 02023G33KT 6SM -RA OVC040
     FM080600 36020G28KT P6SM BKN050
     FM081000 33013G19KT P6SM SCT025 SCT120
     FM081700 02008KT P6SM OVC050=

USA.gov is the U.S. government's official web portal to all federal, state and local government web resources and services.